createdAt,value
2023-04-29T00:02:03.370Z,10.90
2023-04-29T00:04:52.020Z,10.80
2023-04-29T00:07:40.529Z,10.70
2023-04-29T00:10:30.302Z,10.50
2023-04-29T00:13:18.957Z,10.40
2023-04-29T00:16:07.827Z,10.40
2023-04-29T00:18:55.599Z,11.50
2023-04-29T00:21:43.702Z,10.20
2023-04-29T00:24:31.225Z,10.10
2023-04-29T00:27:19.902Z,10.10
2023-04-29T00:30:08.849Z,10.00
2023-04-29T00:32:56.638Z,9.90
2023-04-29T00:35:44.413Z,9.80
2023-04-29T00:38:34.728Z,10.20
2023-04-29T00:41:22.326Z,9.90
2023-04-29T00:44:11.750Z,9.90
2023-04-29T00:46:59.543Z,9.90
2023-04-29T00:49:47.551Z,9.90
2023-04-29T00:52:39.224Z,7.50
2023-04-29T00:55:27.610Z,9.80
2023-04-29T00:58:15.074Z,7.60
2023-04-29T01:01:05.066Z,9.70
2023-04-29T01:03:52.820Z,9.80
2023-04-29T01:06:46.540Z,9.80
2023-04-29T01:09:41.101Z,9.80
2023-04-29T01:12:32.990Z,9.70
2023-04-29T01:15:23.874Z,9.80
2023-04-29T01:18:15.140Z,9.70
2023-04-29T01:21:03.048Z,9.70
2023-04-29T01:23:56.409Z,9.70
2023-04-29T01:26:48.941Z,9.90
2023-04-29T01:30:02.503Z,9.70
2023-04-29T01:32:54.353Z,9.70
2023-04-29T01:35:47.002Z,9.70
2023-04-29T01:38:37.919Z,9.70
2023-04-29T01:41:31.865Z,8.90
2023-04-29T01:44:30.335Z,9.60
2023-04-29T01:47:19.543Z,9.60
2023-04-29T01:50:11.685Z,9.50
2023-04-29T01:53:00.582Z,9.60
2023-04-29T01:55:49.189Z,12.20
2023-04-29T01:58:58.990Z,9.40
2023-04-29T02:01:59.147Z,9.40
2023-04-29T02:04:47.482Z,9.40
2023-04-29T02:07:35.293Z,9.40
2023-04-29T02:10:23.333Z,9.10
2023-04-29T02:13:17.872Z,9.40
2023-04-29T02:16:10.984Z,9.30
2023-04-29T02:19:02.212Z,9.40
2023-04-29T02:21:49.753Z,10.60
2023-04-29T02:24:40.505Z,9.30
2023-04-29T02:27:28.208Z,9.30
2023-04-29T02:30:17.487Z,9.30
2023-04-29T02:33:08.486Z,9.30
2023-04-29T02:35:56.491Z,10.20
2023-04-29T02:38:44.159Z,9.20
2023-04-29T02:41:33.265Z,9.20
2023-04-29T02:44:20.647Z,9.20
2023-04-29T02:47:08.978Z,9.20
2023-04-29T02:49:59.135Z,9.10
2023-04-29T02:52:46.807Z,9.10
2023-04-29T02:55:35.067Z,9.10
2023-04-29T02:58:29.506Z,9.20
2023-04-29T03:01:17.167Z,9.10
2023-04-29T03:04:05.187Z,9.10
2023-04-29T03:06:56.327Z,9.20
2023-04-29T03:09:46.813Z,9.20
2023-04-29T03:12:35.080Z,9.20
2023-04-29T03:15:23.504Z,9.10
2023-04-29T03:18:11.672Z,9.10
2023-04-29T03:21:04.693Z,9.00
2023-04-29T03:23:53.772Z,9.10
2023-04-29T03:26:48.203Z,9.10
2023-04-29T03:29:35.481Z,9.10
2023-04-29T03:32:23.290Z,9.10
2023-04-29T03:35:15.563Z,9.10
2023-04-29T03:38:16.031Z,9.10
2023-04-29T03:41:06.039Z,9.10
2023-04-29T03:43:55.097Z,9.00
2023-04-29T03:46:42.625Z,9.00
2023-04-29T03:49:30.298Z,9.00
2023-04-29T03:52:17.663Z,9.00
2023-04-29T03:55:08.187Z,9.00
2023-04-29T03:58:00.052Z,9.00
2023-04-29T04:00:47.924Z,9.00
2023-04-29T04:03:41.611Z,9.00
2023-04-29T04:06:30.171Z,9.00
2023-04-29T04:09:18.722Z,9.10
2023-04-29T04:12:07.788Z,9.10
2023-04-29T04:14:57.848Z,9.00
2023-04-29T04:17:45.790Z,9.00
2023-04-29T04:20:33.140Z,8.90
2023-04-29T04:23:20.939Z,10.30
2023-04-29T04:26:08.749Z,9.00
2023-04-29T04:29:22.165Z,9.00
2023-04-29T04:32:22.676Z,9.00
2023-04-29T04:35:10.779Z,7.10
2023-04-29T04:37:58.983Z,9.00
2023-04-29T04:40:47.967Z,9.00
2023-04-29T04:43:54.870Z,9.10
2023-04-29T04:46:52.165Z,9.00
2023-04-29T04:49:56.638Z,9.00
2023-04-29T04:52:44.416Z,9.00
2023-04-29T04:55:53.082Z,10.90
2023-04-29T04:58:41.239Z,9.00
2023-04-29T05:01:28.947Z,8.90
2023-04-29T05:04:19.562Z,9.00
2023-04-29T05:07:08.503Z,9.10
2023-04-29T05:10:16.835Z,9.00
2023-04-29T05:13:09.284Z,6.10
2023-04-29T05:15:57.723Z,8.90
2023-04-29T05:18:49.473Z,8.90
2023-04-29T05:21:41.172Z,9.00
2023-04-29T05:24:33.022Z,9.00
2023-04-29T05:27:20.576Z,9.00
2023-04-29T05:30:08.870Z,9.00
2023-04-29T05:32:56.784Z,9.60
2023-04-29T05:35:48.175Z,8.90
2023-04-29T05:38:38.556Z,9.10
2023-04-29T05:41:31.385Z,8.90
2023-04-29T05:44:34.939Z,9.10
2023-04-29T05:47:22.426Z,9.10
2023-04-29T05:50:09.989Z,9.10
2023-04-29T05:52:59.829Z,9.10
2023-04-29T05:55:49.182Z,9.10
2023-04-29T05:58:42.184Z,9.10
2023-04-29T06:01:33.516Z,9.60
2023-04-29T06:04:21.699Z,9.10
2023-04-29T06:07:30.971Z,9.10
2023-04-29T06:10:27.313Z,9.10
2023-04-29T06:13:15.204Z,9.00
2023-04-29T06:16:10.488Z,9.10
2023-04-29T06:19:00.885Z,9.20
2023-04-29T06:21:49.036Z,11.30
2023-04-29T06:24:36.829Z,9.00
2023-04-29T06:27:27.583Z,8.90
2023-04-29T06:30:15.536Z,10.20
2023-04-29T06:33:05.341Z,8.90
2023-04-29T06:35:54.059Z,9.00
2023-04-29T06:39:01.957Z,9.00
2023-04-29T06:42:08.510Z,11.70
2023-04-29T06:45:25.455Z,9.00
2023-04-29T06:48:30.916Z,9.00
2023-04-29T06:51:20.783Z,9.10
2023-04-29T06:54:08.711Z,9.00
2023-04-29T06:56:56.768Z,9.10
2023-04-29T06:59:45.459Z,8.70
2023-04-29T07:02:35.999Z,9.10
2023-04-29T07:05:25.885Z,9.00
2023-04-29T07:08:27.944Z,9.10
2023-04-29T07:11:19.354Z,9.10
2023-04-29T07:14:15.278Z,9.10
2023-04-29T07:17:03.179Z,9.00
2023-04-29T07:19:53.896Z,9.00
2023-04-29T07:22:45.050Z,8.90
2023-04-29T07:25:35.118Z,9.40
2023-04-29T07:28:23.488Z,8.80
2023-04-29T07:31:14.634Z,8.80
2023-04-29T07:34:02.376Z,8.80
2023-04-29T07:36:50.407Z,8.90
2023-04-29T07:39:39.547Z,9.00
2023-04-29T07:42:28.183Z,9.00
2023-04-29T07:45:15.621Z,8.20
2023-04-29T07:48:06.763Z,9.20
2023-04-29T07:50:54.841Z,9.50
2023-04-29T07:53:45.939Z,9.20
2023-04-29T07:56:42.780Z,9.20
2023-04-29T07:59:31.157Z,9.80
2023-04-29T08:02:18.939Z,9.40
2023-04-29T08:05:12.911Z,9.60
2023-04-29T08:08:01.594Z,9.40
2023-04-29T08:10:50.224Z,9.60
2023-04-29T08:13:39.519Z,9.90
2023-04-29T08:16:27.317Z,9.70
2023-04-29T08:19:15.372Z,10.00
2023-04-29T08:22:04.467Z,9.80
2023-04-29T08:24:53.145Z,10.20
2023-04-29T08:27:43.756Z,10.10
2023-04-29T08:30:39.708Z,10.80
2023-04-29T08:33:27.186Z,10.20
2023-04-29T08:36:14.763Z,10.10
2023-04-29T08:39:02.578Z,10.00
2023-04-29T08:41:52.160Z,6.80
2023-04-29T08:44:43.225Z,10.50
2023-04-29T08:47:33.665Z,10.00
2023-04-29T08:50:22.656Z,10.00
2023-04-29T08:53:10.940Z,10.10
2023-04-29T08:56:02.569Z,10.30
2023-04-29T08:58:54.885Z,10.50
2023-04-29T09:01:50.864Z,10.30
2023-04-29T09:04:48.162Z,10.10
2023-04-29T09:07:36.752Z,10.70
2023-04-29T09:10:28.021Z,10.90
2023-04-29T09:13:24.670Z,11.10
2023-04-29T09:16:13.539Z,10.70
2023-04-29T09:19:03.473Z,10.70
2023-04-29T09:21:57.533Z,11.10
2023-04-29T09:24:45.878Z,11.40
2023-04-29T09:27:34.933Z,11.40
2023-04-29T09:30:22.779Z,11.60
2023-04-29T09:33:11.072Z,11.50
2023-04-29T09:35:59.114Z,11.40
2023-04-29T09:38:56.833Z,11.60
2023-04-29T09:41:59.271Z,8.30
2023-04-29T09:44:50.197Z,11.50
2023-04-29T09:47:38.495Z,11.60
2023-04-29T09:50:26.242Z,11.90
2023-04-29T09:53:30.509Z,11.80
2023-04-29T09:56:22.969Z,11.80
2023-04-29T09:59:11.227Z,12.00
2023-04-29T10:01:59.372Z,12.20
2023-04-29T10:04:48.692Z,12.30
2023-04-29T10:07:37.564Z,11.90
2023-04-29T10:10:26.013Z,11.90
2023-04-29T10:13:17.999Z,12.00
2023-04-29T10:16:11.929Z,11.30
2023-04-29T10:19:03.788Z,12.40
2023-04-29T10:21:52.392Z,12.40
2023-04-29T10:24:40.786Z,12.10
2023-04-29T10:27:30.868Z,14.80
2023-04-29T10:30:21.983Z,13.50
2023-04-29T10:33:12.374Z,11.90
2023-04-29T10:36:03.486Z,11.90
2023-04-29T10:38:53.387Z,12.10
2023-04-29T10:41:46.133Z,12.30
2023-04-29T10:44:54.832Z,12.40
2023-04-29T10:47:44.461Z,12.30
2023-04-29T10:50:35.018Z,12.60
2023-04-29T10:53:24.891Z,12.60
2023-04-29T10:56:13.828Z,12.90
2023-04-29T10:59:05.296Z,12.90
2023-04-29T11:01:53.573Z,12.70
2023-04-29T11:04:57.289Z,12.60
2023-04-29T11:07:47.149Z,14.90
2023-04-29T11:10:39.159Z,12.70
2023-04-29T11:13:27.593Z,12.60
2023-04-29T11:16:16.362Z,12.60
2023-04-29T11:19:07.812Z,13.00
2023-04-29T11:22:14.781Z,12.90
2023-04-29T11:25:08.030Z,13.00
2023-04-29T11:27:57.094Z,13.10
2023-04-29T11:30:46.860Z,13.40
2023-04-29T11:33:35.076Z,13.30
2023-04-29T11:36:23.492Z,13.40
2023-04-29T11:39:11.302Z,13.40
2023-04-29T11:42:06.006Z,14.10
2023-04-29T11:44:57.000Z,14.30
2023-04-29T11:47:45.117Z,13.90
2023-04-29T11:50:34.034Z,13.70
2023-04-29T11:53:24.288Z,13.90
2023-04-29T11:56:14.008Z,13.40
2023-04-29T11:59:08.317Z,13.30
2023-04-29T12:01:57.209Z,14.30
2023-04-29T12:04:48.421Z,13.60
2023-04-29T12:07:36.773Z,13.60
2023-04-29T12:10:24.265Z,13.50
2023-04-29T12:13:12.896Z,13.30
2023-04-29T12:16:02.562Z,13.50
2023-04-29T12:18:50.368Z,13.90
2023-04-29T12:21:40.786Z,14.40
2023-04-29T12:24:31.614Z,14.60
2023-04-29T12:27:22.869Z,14.60
2023-04-29T12:30:11.524Z,12.80
2023-04-29T12:33:01.523Z,14.10
2023-04-29T12:35:50.584Z,13.90
2023-04-29T12:38:38.343Z,13.70
2023-04-29T12:41:37.950Z,13.60
2023-04-29T12:44:26.354Z,13.40
2023-04-29T12:47:14.894Z,13.30
2023-04-29T12:50:04.891Z,13.20
2023-04-29T12:52:53.206Z,12.90
2023-04-29T12:55:41.026Z,13.20
2023-04-29T12:58:30.714Z,13.20
2023-04-29T13:01:19.561Z,13.70
2023-04-29T13:04:11.925Z,14.00
2023-04-29T13:07:04.651Z,15.30
2023-04-29T13:09:52.343Z,14.40
2023-04-29T13:12:42.407Z,14.30
2023-04-29T13:15:30.510Z,13.40
2023-04-29T13:18:18.785Z,14.10
2023-04-29T13:21:06.430Z,14.40
2023-04-29T13:23:56.506Z,14.30
2023-04-29T13:26:50.239Z,14.40
2023-04-29T13:29:40.376Z,14.50
2023-04-29T13:32:41.881Z,14.50
2023-04-29T13:35:36.008Z,14.50
2023-04-29T13:38:24.077Z,14.60
2023-04-29T13:41:16.937Z,14.30
2023-04-29T13:44:06.999Z,14.10
2023-04-29T13:47:07.633Z,14.10
2023-04-29T13:56:28.292Z,14.60
2023-04-29T13:59:37.288Z,14.80
2023-04-29T14:04:54.414Z,15.10
2023-04-29T14:07:44.516Z,15.40
2023-04-29T14:10:32.524Z,15.20
2023-04-29T14:13:26.169Z,15.10
2023-04-29T14:16:19.082Z,14.70
2023-04-29T14:19:07.567Z,14.40
2023-04-29T14:21:56.132Z,14.50
2023-04-29T14:24:43.558Z,14.40
2023-04-29T14:27:35.880Z,14.40
2023-04-29T14:30:24.250Z,14.20
2023-04-29T14:33:13.775Z,13.90
2023-04-29T14:36:04.926Z,13.70
2023-04-29T14:38:52.592Z,13.70
2023-04-29T14:41:42.703Z,13.70
2023-04-29T14:44:32.114Z,13.80
2023-04-29T14:47:19.997Z,13.80
2023-04-29T14:50:10.829Z,14.00
2023-04-29T14:52:59.068Z,14.10
2023-04-29T14:55:48.134Z,14.30
2023-04-29T14:58:35.735Z,14.50
2023-04-29T15:01:29.229Z,12.60
2023-04-29T15:04:18.095Z,14.70
2023-04-29T15:07:10.371Z,14.90
2023-04-29T15:09:58.110Z,15.30
2023-04-29T15:12:50.278Z,15.40
2023-04-29T15:15:38.558Z,15.40
2023-04-29T15:18:27.199Z,15.60
2023-04-29T15:21:14.741Z,15.70
2023-04-29T15:24:04.772Z,15.50
2023-04-29T15:26:53.954Z,15.50
2023-04-29T15:29:41.804Z,15.40
2023-04-29T15:32:32.795Z,15.60
2023-04-29T15:35:21.331Z,15.50
2023-04-29T15:38:09.526Z,15.60
2023-04-29T15:41:01.149Z,15.40
2023-04-29T15:43:49.410Z,15.70
2023-04-29T15:46:39.008Z,15.60
2023-04-29T15:49:28.286Z,15.70
2023-04-29T15:52:19.175Z,15.20
2023-04-29T15:55:09.550Z,15.10
2023-04-29T15:57:59.773Z,15.00
2023-04-29T16:00:50.417Z,14.50
2023-04-29T16:03:38.427Z,14.40
2023-04-29T16:06:29.756Z,13.00
2023-04-29T16:09:18.111Z,14.20
2023-04-29T16:12:06.114Z,14.10
2023-04-29T16:14:57.799Z,14.20
2023-04-29T16:17:45.509Z,14.20
2023-04-29T16:20:33.723Z,14.30
2023-04-29T16:23:22.433Z,14.30
2023-04-29T16:26:12.705Z,14.60
2023-04-29T16:29:03.729Z,14.50
2023-04-29T16:31:53.240Z,14.40
2023-04-29T16:34:40.881Z,14.50
2023-04-29T16:37:28.544Z,14.50
2023-04-29T16:40:16.863Z,14.60
2023-04-29T16:43:04.576Z,14.60
2023-04-29T16:45:52.458Z,14.70
2023-04-29T16:48:41.777Z,14.70
2023-04-29T16:51:33.751Z,14.80
2023-04-29T16:54:21.542Z,14.90
2023-04-29T16:57:12.001Z,14.70
2023-04-29T17:00:00.160Z,14.60
2023-04-29T17:02:51.364Z,14.50
2023-04-29T17:05:41.061Z,14.70
2023-04-29T17:08:28.926Z,14.70
2023-04-29T17:11:18.399Z,14.40
2023-04-29T17:14:06.296Z,14.60
2023-04-29T17:16:57.362Z,14.50
2023-04-29T17:19:45.639Z,14.50
2023-04-29T17:22:35.881Z,14.50
2023-04-29T17:25:26.165Z,14.50
2023-04-29T17:28:16.093Z,14.50
2023-04-29T17:31:03.887Z,14.50
2023-04-29T17:33:55.480Z,14.50
2023-04-29T17:36:43.156Z,14.40
2023-04-29T17:39:32.404Z,14.50
2023-04-29T17:42:25.322Z,14.40
2023-04-29T17:45:14.318Z,14.30
2023-04-29T17:48:04.131Z,14.20
2023-04-29T17:50:52.621Z,14.10
2023-04-29T17:53:40.442Z,14.10
2023-04-29T17:56:30.119Z,14.10
2023-04-29T17:59:21.639Z,14.10
2023-04-29T18:02:09.238Z,14.10
2023-04-29T18:04:57.486Z,13.60
2023-04-29T18:07:46.288Z,14.90
2023-04-29T18:10:34.348Z,14.00
2023-04-29T18:13:46.555Z,14.00
2023-04-29T18:16:34.053Z,13.90
2023-04-29T18:19:28.097Z,13.90
2023-04-29T18:22:18.638Z,12.40
2023-04-29T18:25:10.073Z,13.60
2023-04-29T18:28:07.573Z,13.60
2023-04-29T18:31:12.179Z,13.40
2023-04-29T18:33:59.781Z,13.30
2023-04-29T18:36:48.538Z,13.00
2023-04-29T18:39:39.362Z,12.90
2023-04-29T18:42:29.865Z,12.40
2023-04-29T18:45:17.479Z,12.50
2023-04-29T18:48:07.184Z,12.20
2023-04-29T18:50:55.914Z,12.10
2023-04-29T18:53:44.292Z,11.80
2023-04-29T18:56:32.669Z,12.00
2023-04-29T18:59:20.332Z,11.70
2023-04-29T19:02:13.761Z,11.60
2023-04-29T19:05:06.828Z,11.50
2023-04-29T19:07:59.842Z,11.40
2023-04-29T19:10:50.919Z,11.20
2023-04-29T19:13:39.365Z,11.00
2023-04-29T19:16:28.079Z,11.70
2023-04-29T19:19:16.575Z,10.90
2023-04-29T19:22:06.114Z,10.60
2023-04-29T19:24:59.097Z,10.60
2023-04-29T19:27:49.229Z,10.10
2023-04-29T19:30:39.418Z,10.50
2023-04-29T19:33:27.565Z,10.40
2023-04-29T19:36:15.670Z,10.40
2023-04-29T19:39:05.485Z,10.30
2023-04-29T19:41:56.297Z,10.30
2023-04-29T19:44:45.066Z,10.30
2023-04-29T19:47:33.472Z,10.20
2023-04-29T19:50:23.014Z,10.10
2023-04-29T19:53:11.545Z,10.00
2023-04-29T19:56:01.012Z,9.90
2023-04-29T19:58:51.693Z,9.00
2023-04-29T20:01:41.894Z,10.10
2023-04-29T20:04:30.103Z,10.00
2023-04-29T20:07:24.177Z,9.90
2023-04-29T20:10:12.166Z,10.90
2023-04-29T20:13:03.500Z,12.70
2023-04-29T20:15:54.613Z,9.90
2023-04-29T20:18:44.511Z,9.80
2023-04-29T20:21:33.989Z,9.80
2023-04-29T20:24:23.837Z,9.80
2023-04-29T20:27:15.739Z,9.90
2023-04-29T20:30:05.704Z,10.00
2023-04-29T20:32:53.938Z,10.00
2023-04-29T20:35:42.869Z,9.80
2023-04-29T20:38:35.422Z,10.10
2023-04-29T20:41:31.409Z,10.10
2023-04-29T20:44:21.908Z,11.30
2023-04-29T20:47:12.644Z,10.10
2023-04-29T20:50:00.900Z,10.30
2023-04-29T20:52:54.905Z,10.30
2023-04-29T20:56:04.358Z,10.40
2023-04-29T20:58:53.028Z,10.40
2023-04-29T21:01:41.135Z,10.40
2023-04-29T21:04:31.338Z,10.40
2023-04-29T21:07:18.756Z,10.20
2023-04-29T21:10:06.999Z,10.00
2023-04-29T21:12:54.870Z,10.00
2023-04-29T21:15:45.528Z,9.90
2023-04-29T21:18:33.284Z,9.80
2023-04-29T21:21:23.452Z,9.70
2023-04-29T21:24:16.850Z,10.20
2023-04-29T21:27:09.382Z,9.50
2023-04-29T21:30:01.710Z,8.70
2023-04-29T21:32:52.492Z,12.80
2023-04-29T21:35:42.277Z,9.50
2023-04-29T21:38:31.762Z,9.50
2023-04-29T21:41:26.781Z,10.40
2023-04-29T21:44:16.754Z,9.50
2023-04-29T21:47:08.239Z,12.00
2023-04-29T21:50:00.813Z,9.40
2023-04-29T21:52:50.602Z,9.40
2023-04-29T21:55:41.775Z,9.70
2023-04-29T21:58:30.522Z,9.30
2023-04-29T22:01:29.818Z,9.20
2023-04-29T22:04:19.289Z,9.50
2023-04-29T22:07:07.430Z,9.40
2023-04-29T22:09:55.586Z,9.40
2023-04-29T22:12:46.498Z,8.10
2023-04-29T22:15:35.018Z,9.60
2023-04-29T22:18:23.552Z,9.30
2023-04-29T22:21:18.056Z,9.50
2023-04-29T22:24:07.782Z,9.90
2023-04-29T22:26:58.760Z,9.60
2023-04-29T22:29:48.857Z,9.70
2023-04-29T22:32:36.604Z,9.50
2023-04-29T22:35:26.263Z,9.20
2023-04-29T22:38:14.532Z,7.60
2023-04-29T22:41:06.084Z,9.20
2023-04-29T22:43:57.816Z,9.30
2023-04-29T22:46:47.632Z,8.80
2023-04-29T22:49:36.397Z,9.20
2023-04-29T22:52:26.097Z,9.10
2023-04-29T22:55:21.016Z,8.80
2023-04-29T22:58:09.097Z,11.30
2023-04-29T23:00:58.108Z,7.90
2023-04-29T23:03:51.289Z,8.60
2023-04-29T23:06:39.648Z,8.60
2023-04-29T23:09:28.504Z,8.70
2023-04-29T23:12:16.741Z,8.50
2023-04-29T23:15:04.994Z,8.70
2023-04-29T23:17:53.177Z,8.80
2023-04-29T23:20:42.704Z,8.90
2023-04-29T23:23:30.378Z,8.90
2023-04-29T23:26:17.760Z,9.20
2023-04-29T23:29:06.564Z,9.00
2023-04-29T23:31:54.767Z,9.10
2023-04-29T23:34:42.382Z,9.10
2023-04-29T23:37:31.680Z,10.00
2023-04-29T23:40:20.266Z,9.60
2023-04-29T23:43:07.880Z,8.30
2023-04-29T23:45:56.524Z,8.80
2023-04-29T23:48:44.423Z,8.60
2023-04-29T23:51:34.244Z,8.50
2023-04-29T23:54:23.493Z,8.30
2023-04-29T23:57:11.796Z,8.20
